CheckWX is a tool to help pilots better visualize weather data.  It is not intended as a substitute for an official pre-flight weather briefing.

03:42:40 UTC

KDPA METAR
Dupage Airport Airport
Chicago/West Chicago, Illinois, USA
Current

51 mins ago

KDPA 110252Z 29007KT 10SM CLR 23/17 A2991 RMK AO2 SLP123 T02330172 53008
Observed
Jul-11 @ 02:52 UTC
Wind
  • 290° at 7 KTS
Visibility
10 SM
Flight Rules
VFR
Cloud Levels
  • Clear skies
Temperature
23°C / 73°F
Dewpoint
17°C / 63°F
Humidity
69%
Altimeter
29.91" Hg
Pressure
1012.92 hPa
Previous

2 hours ago

KDPA 110152Z 30006KT 10SM CLR 24/17 A2989 RMK AO2 SLP116 T02390172
Observed
Jul-11 @ 01:52 UTC
Wind
  • 300° at 6 KTS
Visibility
10 SM
Flight Rules
VFR
Cloud Levels
  • Clear skies
Temperature
24°C / 75°F
Dewpoint
17°C / 63°F
Humidity
65%
Altimeter
29.89" Hg
Pressure
1012.22 hPa
Previous

3 hours ago

KDPA 110052Z 31009KT 10SM CLR 27/17 A2989 RMK AO2 SLP117 T02670167
Observed
Jul-11 @ 00:52 UTC
Wind
  • 310° at 9 KTS
Visibility
10 SM
Flight Rules
VFR
Cloud Levels
  • Clear skies
Temperature
27°C / 81°F
Dewpoint
17°C / 63°F
Humidity
54%
Altimeter
29.89" Hg
Pressure
1012.22 hPa